Warning: Javascript must be enabled to use all the features on this page!


Page Loading - Please Wait...

Click to hideNews Bulletins

Peak Streamflow for the Nation

USGS 11381500 MILL C NR LOS MOLINOS CA

Tehama County, California
Hydrologic Unit Code 18020156
Latitude  40°03'17", Longitude 122°01'23" NAD27
Drainage area 131  square miles
Gage datum 385.00 feet above NGVD29
Output formats
Table
Graph
Tab-separated file
peakfq (watstore) format
Reselect output format
Water
Year
Date Gage
Height
(feet)
Stream-
flow
(cfs)
1929 1929-02-03 6.15 1,770
1930 1929-12-15 10.05 6,000
1931 1931-01-23 5.53 1,500
1932 1931-12-24 9.62 5,440
1933 1933-03-16 4.58 1,080
1934 1933-12-29 7.16 2,630
1935 1935-01-04 8.50 4,010
1936 1936-02-21 8.83 4,380
1937 1937-02-14 7.94 3,310
1938 1937-12-11 23.40 36,400
1939 1939-03-08 4.88 1,260
1940 1940-02-28 12.35 11,400
1941 1941-02-10 12.90 12,200
1942 1942-02-06 12.70 11,000
1943 1943-03-08 9.87 6,970
1944 1944-03-04 6.92 3,220
1945 1945-02-05 6.93 3,230
1946 1945-12-21 9.30 6,180
1947 1947-02-12 7.65 4,070
1948 1948-03-23 10.12 7,320
1949 1949-03-11 7.48 3,870
1950 1950-02-04 7.95 4,430
1951 1950-11-16 7.48 3,870
1952 1951-12-26 8.61 5,280
1953 1953-01-09 10.40 7,710
1954 1954-01-17 8.32 4,910
1955 1954-11-11 6.20 2,480
1956 1955-12-22 12.25 9,180
1957 1957-02-24 10.03 6,140
1958 1958-02-24 10.60 6,880
1959 1959-02-16 8.65 4,560
1960 1960-02-08 9.06 5,000
1961 1961-01-31 8.55 4,450
1962 1962-02-15 8.60 4,500
1963 1962-10-12 15.45 14,100
1964 1964-01-20 9.82 6,500
1965 1964-12-22 15.26 16,000
1966 1966-01-04 6.62 2,760
1967 1966-12-02 9.49 6,780
1968 1968-01-14 7.94 4,000
1969 1969-01-21 13.14 12,400
1970 1970-01-23 15.63 17,100
1971 1970-12-04 9.41 5,870
1972 1972-02-28 5.32 1,490
1973 1973-01-16 9.22 5,610
1974 1973-11-11 12.06 10,300
1975 1975-02-13 9.45 5,930
1976 1976-02-29 5.75 1,810
1977 1977-09-29 3.03 436
1978 1978-03-04 9.97 6,700
1979 1979-02-13 8.91 5,160
1980 1980-01-13 12.05 10,200
1981 1981-01-27 8.45 4,550
1982 1981-11-16 12.64 11,400
1983 1983-01-26 11.20 8,610
1984 1983-12-25 9.24 5,250
1985 1985-02-08 6.23 1,910
1986 1986-02-17 12.85 11,800
1987 1987-03-12 10.38 7,110
1988 1988-01-04 6.47 1,980
1989 1989-03-11 11.56 9,270
1990 1989-10-23 7.55 2,960
1991 1991-03-04 7.93 3,370
1992 1992-02-14 8.45 4,020
1993 1993-01-20 9.97 6,350
1994 1993-12-08 5.80 1,510
1995 1995-01-10 12.86 11,000
1996 1995-12-12 10.00 5,820
1997 1997-01-01 17.10 20,600
1998 1998-02-03 10.42 7,120
1999 1999-02-09 8.85 5,120
2000 2000-02-14 7.27 3,260
2001 2001-03-05 4.98 1,500
2002 2002-01-01 6.37 2,470
2003 2002-12-28 9.88 6,350
2004 2004-02-17 9.99 6,500
2005 2005-05-19 6.28 2,400
2006 2005-12-31 11.665 9,1402
2007 2007-02-10 7.12 3,110
2008 2008-01-04 7.45 3,430
2009 2009-03-02 9.33 5,610
2010 2010-01-19 8.40 4,460
2011 2011-02-16 7.45 3,430
2012 2012-03-17 6.01 2,190
2013 2012-12-02 12.59 10,800
2014 2014-03-10 8.53 4,690
2015 2014-12-11 11.83 9,520
2016 2016-03-06 11.32 8,670
2017 2016-12-15 12.55 10,800
2018 2018-04-07 9.34 5,670
2019 2019-02-14 11.23 8,500
2020 2020-01-26   1,740
?
  Peak Gage-Height Qualification Codes.
?
  Peak Streamflow Qualification Codes.